Nearby METAR Reports

 

KBML - Berlin, NH
Mise à jour: Wed, 17-Jan-2018 9:12am EST
Light snow, Mist, couvert
Light snow, Mist, couvert
 Wind from calm
Vent: calme
Température: 19°F , -7°C
Point de rosée: 18°F , -8°C
Humidité: 93%
Baromètre: 30.27 inHg , 1025.1 hPa
Résumé: Light snow, Mist
Clouds: couvert
Visibility: 2 miles , 3 km
Cloud details: couvert 6000 ft
2018/01/17 14:12 KBML 171412Z AUTO 00000KT 2SM -SN BR OVC060 M07/M08 A3027 RMK AO2 SNB1355 P0000 T10671083
KCON - Concord, NH
Mise à jour: Wed, 17-Jan-2018 9:32am EST
Light snow, Mist, couvert
Light snow, Mist, couvert
 Wind from NO
Vent: NO 6 mph , 9 km/h
Température: 27°F , -3°C
Wind Chill: 20°F , -7°C
Point de rosée: 25°F , -4°C
Humidité: 93%
Baromètre: 30.29 inHg , 1025.7 hPa
Résumé: Light snow, Mist
Clouds: couvert
Visibility: 2 miles , 3 km
Cloud details: couvert 1900 ft
2018/01/17 14:32 KCON 171432Z AUTO 31005KT 2SM -SN BR OVC019 M03/M04 A3029 RMK AO2 P0000 T10281044
KAFN - Lebanon, NH
Mise à jour: Wed, 17-Jan-2018 9:32am EST
Light snow, Mist, couvert
Light snow, Mist, couvert
 Wind from varies
Vent: varies 3 mph , 6 km/h
Température: 28°F , -2°C
Point de rosée: 27°F , -3°C
Humidité: 93%
Baromètre: 30.24 inHg , 1024 hPa
Résumé: Light snow, Mist
Clouds: couvert
Visibility: 3/4 mile , 1.2 km
Cloud details: partiellement nuageux 1100 ft
couvert 1700 ft
2018/01/17 14:32 KAFN 171432Z AUTO VRB03KT 3/4SM -SN BR SCT011 OVC017 M02/M03 A3024 RMK AO2 P0001 T10221028
 
KMHT - Manchester, NH
Mise à jour: Wed, 17-Jan-2018 9:40am EST
Light snow, Mist, couvert
Light snow, Mist, couvert
 Wind from NNO
Vent: NNO 3 mph , 6 km/h
Température: 30°F , -1°C
Point de rosée: 27°F , -3°C
Humidité: 86%
Baromètre: 30.28 inHg , 1025.4 hPa
Résumé: Light snow, Mist
Clouds: couvert
Visibility: 3/4 mile , 1.2 km
Cloud details: couvert 500 ft
2018/01/17 14:40 KMHT 171440Z 33003KT 3/4SM R35/4000V4500FT -SN BR OVC005 M01/M03 A3028 RMK AO2 TWR VIS 1 P0001 T10111028
KMWN - Mount Washington
Mise à jour: Wed, 17-Jan-2018 8:53am EST
Light snow, Showers, Freezing, Fog, couvert
Light snow, Showers, Freezing, Fog, couvert
 Wind from O
Vent: O 17 mph , 28 km/h
Température: 9°F , -13°C
Wind Chill: -9°F , -23°C
Point de rosée: 9°F , -13°C
Humidité: 100%
Résumé: Light snow, Showers, Freezing, Fog
Clouds: couvert
Visibility: 1/16 mile , 0.1 km
Cloud details: couvert 100 ft
2018/01/17 13:53 KMWN 171353Z 26015KT 1/16SM -SHSN FZFG VV001 M13/M13 RMK SNE05SHSNB05 VRY LGT ICG
K25B - Portsmouth Harbor
Mise à jour: Wed, 31-Dec-1969 7:00pm EST
NOT Current
unable to load K25B data RC=404 Not Found
unable to load K25B data RC=404 Not Found
 
 
KDDH - Bennington, VT
Mise à jour: Wed, 17-Jan-2018 9:39am EST
Light snow, Mist, couvert
Light snow, Mist, couvert
 Wind from calm
Vent: calme
Température: 28°F , -2°C
Point de rosée: 25°F , -4°C
Humidité: 86%
Baromètre: 30.25 inHg , 1024.4 hPa
Résumé: Light snow, Mist
Clouds: couvert
Visibility: 1 1/4 miles , 2 km
Cloud details: Few Clouds 500 ft
nuageux 1200 ft
couvert 2900 ft
2018/01/17 14:39 KDDH 171439Z AUTO 00000KT 1 1/4SM -SN BR FEW005 BKN012 OVC029 M02/M04 A3025 RMK AO2 P0001 T10221039
K9B2 - Newport, VT
Mise à jour: Wed, 31-Dec-1969 7:00pm EST
NOT Current
unable to load K9B2 data RC=404 Not Found
unable to load K9B2 data RC=404 Not Found
 
K1V4 - St Johnsbury, VT
Mise à jour: Wed, 17-Jan-2018 8:54am EST

 
Température: 21°F , -6°C
Point de rosée: 19°F , -7°C
Humidité: 93%
Baromètre: 30.29 inHg , 1025.7 hPa
2018/01/17 13:54 K1V4 171354Z AUTO M06/M07 A3029 RMK AO1 SLP273 T10611072
 
KBGR - Bangor, ME
Mise à jour: Wed, 17-Jan-2018 8:53am EST
Light snow, Mist, couvert
Light snow, Mist, couvert
 Wind from calm
Vent: calme
Température: 23°F , -5°C
Point de rosée: 19°F , -7°C
Humidité: 86%
Baromètre: 30.37 inHg , 1028.4 hPa
Résumé: Light snow, Mist
Clouds: couvert
Visibility: 1 1/4 miles , 2 km
Cloud details: couvert 2500 ft
2018/01/17 13:53 KBGR 171353Z 00000KT 1 1/4SM R15/5500V6000FT -SN BR OVC025 M05/M07 A3037 RMK AO2 SLP290 P0000 T10501072 $
KBHB - Bar Harbor, ME
Mise à jour: Wed, 17-Jan-2018 9:21am EST
Light snow, Mist, couvert
Light snow, Mist, couvert
 Wind from NNE
Vent: NNE 5 mph , 7 km/h
Température: 25°F , -4°C
Wind Chill: 19°F , -7°C
Point de rosée: 23°F , -5°C
Humidité: 93%
Baromètre: 30.37 inHg , 1028.4 hPa
Résumé: Light snow, Mist
Clouds: couvert
Visibility: 1 mile , 2 km
Cloud details: Few Clouds 600 ft
nuageux 2400 ft
couvert 3000 ft
2018/01/17 14:21 KBHB 171421Z AUTO 02004KT 1SM -SN BR FEW006 BKN024 OVC030 M04/M05 A3037 RMK AO2 FZRANO RVRNO PNO $
74389 - Gray, ME
Mise à jour: Wed, 31-Dec-1969 7:00pm EST
NOT Current
74389 not loaded
74389 not loaded
 
 
KGNR - Greenville,ME
Mise à jour: Wed, 17-Jan-2018 8:56am EST

 Wind from ESE
Vent: ESE 6 mph , 9 km/h
Température: 18°F , -8°C
Wind Chill: 10°F , -12°C
Point de rosée: 16°F , -9°C
Humidité: 93%
Baromètre: 30.25 inHg , 1024.4 hPa
2018/01/17 13:56 KGNR 171356Z AUTO 12005KT M08/M09 A3025 RMK AO1 SLP273 T10831094
KOLD - Old Town, ME
Mise à jour: Wed, 31-Dec-1969 7:00pm EST
NOT Current
unable to load KOLD data RC=404 Not Found
unable to load KOLD data RC=404 Not Found
 
KRUM - Rumford, ME
Mise à jour: Wed, 31-Dec-1969 7:00pm EST
NOT Current
unable to load KRUM data RC=404 Not Found
unable to load KRUM data RC=404 Not Found
 



USA Weather Finder


World Weather Websites





Hit Counter
Contact Us

© 2018, johnsnhweather | Weather-Display (10.37S-(b61)) | Valable XHTML 1.0 | Valable CSS

This website is neither affiliated with nor endorsed by the National Weather Service, the town of Pittsburg or any other government agency.
The weather data contained herein is offered without any warranties expressed or implied, and is meant to supplement NOAA weather forecasts and information. Never base important decisions that could result in harm to people or property on this weather information.